LIEO/OLB METAR and TAF weather

Enter ICAO airport designator
Station Type Date Time Source
LIEO METAR 2020/07/06 22:20 UTC NOAA

LIEO 062220Z 23016KT CAVOK 24/18 Q1008


Station Type Date Time Source
LIEO Decoded METAR 2020/07/06 22:20 UTC NOAA

Olbia / Costa Smeralda, Italy (LIEO) 40-54N 009-31E 13M
Jul 06, 2020 - 06:20 PM EDT / 2020.07.06 2220 UTC
Wind: from the SW (230 degrees) at 18 MPH (16 KT):0
Visibility: greater than 7 mile(s):0
Temperature: 75 F (24 C)
Dew Point: 64 F (18 C)
Relative Humidity: 69%
Pressure (altimeter): 29.77 in. Hg (1008 hPa)
ob: LIEO 062220Z 23016KT CAVOK 24/18 Q1008
cycle: 22

Station Type Date Time Source
LIEO TAF 2020/07/06 18:21 UTC NOAA

TAF LIEO 061700Z 0618/0718 06008KT CAVOK
BECMG 0618/0620 25010KT
BECMG 0708/0710 04010KT

Example: see airport list